Latest Weather Observations for Warra

IDT60801

Issued at 11:02 pm EDT Tuesday 28 February 2017 (issued every 30 minutes, with the page automatically refreshed every 10 minutes)

About weather observations | Map of weather stations | Latest weather observations for TAS | Other Formats
Station Details ID: 097024 Name: WARRA Lat: -43.06 Lon: 146.70 Height: 495.0 m
Data from the previous 72 hours. | See also: Recent months at Warra
Date/Time
EDT
Temp
°C
App
Temp
°C
Dew
Point
°C
Rel
Hum
%
Delta-T
°C
Wind Press
QNH
hPa
Press
MSL
hPa
Rain since
9am
mm
Dir  Spd
km/h
Gust
km/h
Spd
kts
Gust
kts
28/11:00pm 12.1 10.1 8.8 80 1.7 WSW 9 9 5 5 - - 0.0
28/10:30pm 13.7 12.3 9.0 73 2.4 SSW 6 9 3 5 - - 0.0
28/10:00pm 14.3 13.0 10.1 76 2.2 SSW 7 11 4 6 - - 0.0
28/09:30pm 13.4 12.7 10.0 80 1.8 NW 4 7 2 4 - - 0.0
28/09:00pm 13.8 12.5 10.0 78 2.0 NNW 7 9 4 5 - - 0.0
28/08:30pm 15.0 15.1 10.2 73 2.6 CALM 0 0 0 0 - - 0.0
28/08:00pm 16.8 17.1 10.9 68 3.2 CALM 0 0 0 0 - - 0.0
28/07:30pm 20.3 19.5 11.0 55 5.2 S 6 7 3 4 - - 0.0
28/07:00pm 22.5 21.4 10.6 47 6.7 NW 7 13 4 7 - - 0.0
28/06:30pm 23.9 21.5 8.7 38 8.3 W 11 20 6 11 - - 0.0
28/06:00pm 24.7 21.8 8.2 35 9.0 W 13 24 7 13 - - 0.0
28/05:30pm 25.1 22.8 9.0 36 8.9 WSW 11 22 6 12 - - 0.0
28/05:00pm 24.9 21.3 8.4 35 9.0 WSW 17 28 9 15 - - 0.0
28/04:30pm 25.4 22.9 8.4 34 9.3 W 11 26 6 14 - - 0.0
28/04:00pm 25.6 22.8 8.6 34 9.4 SW 13 20 7 11 - - 0.0
28/03:30pm 24.9 22.1 8.4 35 9.0 S 13 20 7 11 - - 0.0
28/03:00pm 24.9 23.7 9.6 38 8.6 SE 6 13 3 7 - - 0.0
28/02:30pm 24.1 22.6 10.7 43 7.6 ESE 9 13 5 7 - - 0.0
28/02:00pm 24.3 23.8 12.6 48 6.9 SW 7 15 4 8 - - 0.0
28/01:30pm 23.2 22.4 11.6 48 6.7 SE 7 13 4 7 - - 0.0
28/01:00pm 22.4 21.8 12.4 53 5.8 SE 7 15 4 8 - - 0.0
28/12:30pm 21.5 19.4 9.7 47 6.5 SSE 11 19 6 10 - - 0.0
28/12:00pm 21.3 20.0 9.9 48 6.3 SSE 7 13 4 7 - - 0.0
28/11:30am 20.3 20.3 13.7 66 3.9 ENE 6 11 3 6 - - 0.0
28/11:00am 19.3 19.3 13.7 70 3.3 ENE 6 9 3 5 - - 0.0
28/10:30am 18.2 17.8 12.9 71 3.0 NNE 7 11 4 6 - - 0.0
28/10:00am 17.1 16.7 12.4 74 2.7 NE 6 9 3 5 - - 0.0
28/09:30am 16.4 16.1 12.6 78 2.2 ENE 6 9 3 5 - - 0.0
28/09:00am 15.9 16.7 13.6 86 1.3 E 2 9 1 5 - - 0.0
28/08:30am 13.5 14.6 13.5 100 0.0 CALM 0 0 0 0 - - 0.0
28/08:00am 11.9 12.1 11.9 100 0.0 N 2 7 1 4 - - 0.0
28/07:30am 10.3 10.4 10.3 100 0.0 CALM 0 0 0 0 - - 0.0
28/07:00am 8.2 7.0 8.2 100 0.0 SW 4 7 2 4 - - 0.0
28/06:30am 8.2 7.8 8.2 100 0.0 CALM 0 0 0 0 - - 0.0
28/06:00am 8.9 7.0 8.9 100 0.0 WSW 9 11 5 6 - - 0.0
28/05:30am 8.4 6.9 8.4 100 0.0 NNW 6 7 3 4 - - 0.0
28/05:00am 8.8 7.8 8.8 100 0.0 WNW 4 7 2 4 - - 0.0
28/04:30am 9.0 8.8 9.0 100 0.0 CALM 0 0 0 0 - - 0.0
28/04:00am 9.0 8.8 9.0 100 0.0 CALM 0 0 0 0 - - 0.0
28/03:30am 9.8 9.8 9.8 100 0.0 CALM 0 0 0 0 - - 0.0
28/03:00am 10.1 9.0 10.1 100 0.0 WNW 6 7 3 4 - - 0.0
28/02:30am 9.8 8.7 9.8 100 0.0 N 6 7 3 4 - - 0.0
28/02:00am 10.1 8.8 10.1 100 0.0 WSW 7 9 4 5 - - 0.0
28/01:30am 10.3 10.4 10.3 100 0.0 CALM 0 0 0 0 - - 0.0
28/01:00am 10.2 10.3 10.2 100 0.0 CALM 0 0 0 0 - - 0.0
28/12:30am 10.5 9.9 10.3 99 0.1 SW 4 6 2 3 - - 0.0
28/12:00am 10.8 10.6 10.3 97 0.3 SW 2 9 1 5 - - 0.0
 
Date/Time
EDT
Temp
°C
App
Temp
°C
Dew
Point
°C
Rel
Hum
%
Delta-T
°C
Wind Press
QNH
hPa
Press
MSL
hPa
Rain since
9am
mm
Dir  Spd
km/h
Gust
km/h
Spd
kts
Gust
kts
27/11:30pm 11.1 11.2 10.3 95 0.4 CALM 0 0 0 0 - - 0.0
27/11:00pm 11.4 11.0 9.8 90 0.8 SSW 2 6 1 3 - - 0.0
27/10:30pm 12.1 11.0 10.0 87 1.1 SSW 6 7 3 4 - - 0.0
27/10:00pm 13.4 12.4 10.2 81 1.7 SSW 6 7 3 4 - - 0.0
27/09:30pm 14.4 13.7 10.2 76 2.2 S 4 7 2 4 - - 0.0
27/09:00pm 15.8 14.8 10.3 70 3.0 SSW 6 7 3 4 - - 0.0
27/08:30pm 16.8 15.6 10.4 66 3.5 SSE 7 11 4 6 - - 0.0
27/08:00pm 18.4 17.3 10.8 61 4.2 SSE 7 13 4 7 - - 0.0
27/07:30pm 19.9 18.6 9.8 52 5.5 SSE 7 15 4 8 - - 0.0
27/07:00pm 21.6 20.2 9.5 46 6.6 SE 7 17 4 9 - - 0.0
27/06:30pm 23.2 21.2 6.9 35 8.6 E 7 9 4 5 - - 0.0
27/06:00pm 23.8 21.9 7.4 35 8.8 ENE 7 13 4 7 - - 0.0
27/05:30pm 24.3 22.1 7.9 35 8.9 E 9 11 5 6 - - 0.0
27/05:00pm 24.1 22.2 7.7 35 8.8 E 7 13 4 7 - - 0.0
27/04:30pm 23.8 22.1 8.2 37 8.5 ESE 7 13 4 7 - - 0.0
27/04:00pm 23.7 22.1 8.9 39 8.1 SE 7 15 4 8 - - 0.0
27/03:30pm 22.6 20.9 8.3 40 7.7 SSE 7 13 4 7 - - 0.0
27/03:00pm 22.8 21.3 8.5 40 7.8 ESE 6 11 3 6 - - 0.0
27/02:30pm 22.2 20.2 8.7 42 7.3 ESE 9 15 5 8 - - 0.0
27/02:00pm 21.8 19.8 10.0 47 6.5 E 11 17 6 9 - - 0.0
27/01:30pm 20.9 19.1 9.5 48 6.2 E 9 13 5 7 - - 0.0
27/01:00pm 20.7 19.3 10.8 53 5.5 NE 9 17 5 9 - - 0.0
27/12:30pm 19.8 18.7 10.5 55 5.2 NE 7 13 4 7 - - 0.0
27/12:00pm 18.7 17.1 10.3 58 4.6 NE 9 13 5 7 - - 0.0
27/11:30am 17.6 16.2 9.5 59 4.4 ENE 7 11 4 6 - - 0.0
27/11:00am 17.3 15.8 10.7 65 3.6 NE 9 11 5 6 - - 0.0
27/10:30am 16.5 15.9 11.6 73 2.7 NNE 6 9 3 5 - - 0.0
27/10:00am 15.1 14.2 10.5 74 2.5 ESE 6 9 3 5 - - 0.0
27/09:30am 14.4 14.0 11.2 81 1.7 SE 4 9 2 5 - - 0.0
27/09:00am 13.3 12.8 12.2 93 0.6 ESE 6 9 3 5 - - 0.0
27/08:30am 12.6 13.4 12.6 100 0.0 CALM 0 0 0 0 - - 0.0
27/08:00am 11.0 10.6 11.0 100 0.0 NE 4 7 2 4 - - 0.0
27/07:30am 8.9 8.3 8.9 100 0.0 NW 2 7 1 4 - - 0.0
27/07:00am 6.9 6.2 6.9 100 0.0 CALM 0 0 0 0 - - 0.0
27/06:30am 6.5 5.7 6.5 100 0.0 CALM 0 0 0 0 - - 0.0
27/06:00am 6.5 4.4 6.5 100 0.0 WSW 7 7 4 4 - - 0.0
27/05:30am 6.8 6.1 6.8 100 0.0 CALM 0 0 0 0 - - 0.0
27/05:00am 6.4 5.6 6.4 100 0.0 CALM 0 0 0 0 - - 0.0
27/04:30am 7.1 5.1 7.1 100 0.0 NNW 7 7 4 4 - - 0.0
27/04:00am 6.7 4.6 6.7 100 0.0 WSW 7 11 4 6 - - 0.0
27/03:30am 6.9 6.2 6.9 100 0.0 CALM 0 0 0 0 - - 0.0
27/03:00am 7.1 6.4 7.1 100 0.0 CALM 0 0 0 0 - - 0.0
27/02:30am 7.0 5.2 7.0 100 0.0 WSW 6 7 3 4 - - 0.0
27/02:00am 7.1 5.1 7.1 100 0.0 W 7 7 4 4 - - 0.0
27/01:30am 7.2 5.4 7.2 100 0.0 WSW 6 9 3 5 - - 0.0
27/01:00am 7.1 6.4 7.1 100 0.0 CALM 0 0 0 0 - - 0.0
27/12:30am 7.4 6.8 7.4 100 0.0 CALM 0 0 0 0 - - 0.0
27/12:00am 7.8 6.2 7.8 100 0.0 NE 6 7 3 4 - - 0.0
 
Date/Time
EDT
Temp
°C
App
Temp
°C
Dew
Point
°C
Rel
Hum
%
Delta-T
°C
Wind Press
QNH
hPa
Press
MSL
hPa
Rain since
9am
mm
Dir  Spd
km/h
Gust
km/h
Spd
kts
Gust
kts
26/11:30pm 8.3 7.9 8.2 99 0.0 CALM 0 0 0 0 - - 0.0
26/11:00pm 9.0 7.4 8.9 99 0.1 N 7 7 4 4 - - 0.0
26/10:30pm 8.6 7.3 7.5 93 0.5 SSW 4 6 2 3 - - 0.0
26/10:00pm 10.2 8.7 8.6 90 0.8 SSE 6 7 3 4 - - 0.0
26/09:30pm 11.1 9.7 8.8 86 1.2 SE 6 11 3 6 - - 0.0
26/09:00pm 11.6 10.2 9.0 84 1.3 SE 6 9 3 5 - - 0.0
26/08:30pm 11.5 10.8 8.4 81 1.6 ENE 2 7 1 4 - - 0.0
26/08:00pm 13.1 11.2 9.0 76 2.1 ESE 9 13 5 7 - - 0.0
26/07:30pm 13.8 12.2 8.8 72 2.6 SE 7 11 4 6 - - 0.0
26/07:00pm 14.8 12.9 9.0 68 3.0 ESE 9 15 5 8 - - 0.0
26/06:30pm 16.7 14.9 9.4 62 3.9 E 9 13 5 7 - - 0.0
26/06:00pm 16.4 14.3 9.6 64 3.6 SE 11 20 6 11 - - 0.0
26/05:30pm 19.4 17.7 9.9 54 5.2 SE 9 17 5 9 - - 0.0
26/05:00pm 19.8 18.2 8.2 47 6.2 WNW 6 9 3 5 - - 0.0
26/04:30pm 18.8 17.2 8.7 52 5.4 SW 7 11 4 6 - - 0.0
26/04:00pm 18.9 17.3 8.8 52 5.4 SW 7 11 4 6 - - 0.0
26/03:30pm 19.1 17.2 9.0 52 5.4 SSW 9 17 5 9 - - 0.0
26/03:00pm 18.3 16.4 9.1 55 4.9 SSW 9 17 5 9 - - 0.0
26/02:30pm 18.3 16.0 9.1 55 4.9 SW 11 20 6 11 - - 0.0
26/02:00pm 18.9 16.6 9.1 53 5.3 WSW 11 19 6 10 - - 0.0
26/01:30pm 18.4 16.4 7.2 48 5.8 NW 7 13 4 7 - - 0.0
26/01:00pm 18.4 17.2 10.3 59 4.4 SSW 7 15 4 8 - - 0.0
26/12:30pm 18.4 16.7 9.7 57 4.7 NNW 9 15 5 8 - - 0.0
26/12:00pm 17.3 15.9 9.5 60 4.2 N 7 17 4 9 - - 0.0
26/11:30am 14.7 12.6 8.2 65 3.3 WSW 9 15 5 8 - - 0.0
26/11:00am 15.6 13.1 8.1 61 3.9 NNW 11 17 6 9 - - 0.0
26/10:30am 15.4 13.6 9.3 67 3.2 NW 9 15 5 8 - - 0.0
26/10:00am 13.6 11.1 8.2 70 2.8 NW 11 17 6 9 - - 0.0
26/09:30am 13.8 11.0 8.4 70 2.8 NW 13 22 7 12 - - 0.0
26/09:00am 13.1 9.9 8.4 73 2.4 NW 15 24 8 13 - - 0.0
26/08:30am 11.9 8.7 8.6 80 1.7 NW 15 24 8 13 - - 0.0
26/08:00am 10.3 7.8 9.7 96 0.3 NW 13 19 7 10 - - 0.0
26/07:30am 6.6 5.1 6.6 100 0.0 WNW 4 7 2 4 - - 0.0
26/07:00am 5.9 3.6 5.9 100 0.0 WSW 7 9 4 5 - - 0.0
26/06:30am 6.2 4.0 6.2 100 0.0 SW 7 9 4 5 - - 0.0
26/06:00am 5.5 2.8 5.5 100 0.0 WSW 9 13 5 7 - - 0.0
26/05:30am 6.2 4.2 6.2 100 0.0 WSW 6 9 3 5 - - 0.0
26/05:00am 5.6 2.9 5.6 100 0.0 WSW 9 15 5 8 - - 0.0
26/04:30am 3.9 0.9 3.9 100 0.0 WSW 9 11 5 6 - - 0.0
26/04:00am 3.8 2.1 3.8 100 0.0 ENE 2 6 1 3 - - 0.0
26/03:30am 4.4 1.8 4.4 100 0.0 WSW 7 11 4 6 - - 0.0
26/03:00am 4.3 1.9 4.3 100 0.0 WSW 6 9 3 5 - - 0.0
26/02:30am 3.7 1.9 3.7 100 0.0 SW 2 7 1 4 - - 0.0
26/02:00am 3.8 2.1 3.8 100 0.0 NW 2 6 1 3 - - 0.0
26/01:30am 3.7 1.0 3.7 100 0.0 NNW 7 9 4 5 - - 0.0
26/01:00am 3.6 1.1 3.6 100 0.0 NNW 6 9 3 5 - - 0.0
26/12:30am 4.3 1.9 4.3 100 0.0 NNE 6 7 3 4 - - 0.0
26/12:00am 3.6 1.1 3.5 99 0.0 N 6 6 3 3 - - 0.0
 
Date/Time
EDT
Temp
°C
App
Temp
°C
Dew
Point
°C
Rel
Hum
%
Delta-T
°C
Wind Press
QNH
hPa
Press
MSL
hPa
Rain since
9am
mm
Dir  Spd
km/h
Gust
km/h
Spd
kts
Gust
kts
25/11:30pm 4.4 3.1 4.3 99 0.0 CALM 0 0 0 0 - - 0.0

Other Formats:

Comma delimited format used in spreadsheet applications
http://www.bom.gov.au/fwo/IDT60801/IDT60801.95962.axf

JavaScript Object Notation format (JSON) in row-major order
http://www.bom.gov.au/fwo/IDT60801/IDT60801.95962.json